sensor_id;sensor_type;location;lat;lon;timestamp;pressure;altitude;pressure_sealevel;temperature;humidity
74372;BME280;62885;51.374;6.170;2023-07-24T00:02:09;100117.53;;;18.06;100.00
74372;BME280;62885;51.374;6.170;2023-07-24T00:04:34;100115.28;;;18.18;100.00
74372;BME280;62885;51.374;6.170;2023-07-24T00:07:00;100114.38;;;18.26;100.00
74372;BME280;62885;51.374;6.170;2023-07-24T00:09:26;100110.66;;;18.27;100.00
74372;BME280;62885;51.374;6.170;2023-07-24T00:11:51;100115.09;;;18.20;100.00
74372;BME280;62885;51.374;6.170;2023-07-24T00:14:16;100105.09;;;18.20;100.00
74372;BME280;62885;51.374;6.170;2023-07-24T00:16:42;100110.88;;;18.17;100.00
74372;BME280;62885;51.374;6.170;2023-07-24T00:19:07;100111.25;;;18.14;100.00
74372;BME280;62885;51.374;6.170;2023-07-24T00:21:33;100106.41;;;18.01;100.00
74372;BME280;62885;51.374;6.170;2023-07-24T00:23:58;100103.34;;;18.04;100.00
74372;BME280;62885;51.374;6.170;2023-07-24T00:26:24;100102.66;;;18.11;100.00
74372;BME280;62885;51.374;6.170;2023-07-24T00:28:49;100104.81;;;18.15;100.00
74372;BME280;62885;51.374;6.170;2023-07-24T00:31:15;100099.09;;;18.10;100.00
74372;BME280;62885;51.374;6.170;2023-07-24T00:33:40;100092.94;;;18.16;100.00
74372;BME280;62885;51.374;6.170;2023-07-24T00:36:05;100095.56;;;18.24;100.00
74372;BME280;62885;51.374;6.170;2023-07-24T00:38:31;100088.78;;;18.28;100.00
74372;BME280;62885;51.374;6.170;2023-07-24T00:40:56;100086.91;;;18.29;100.00
74372;BME280;62885;51.374;6.170;2023-07-24T00:43:21;100083.13;;;18.38;100.00
74372;BME280;62885;51.374;6.170;2023-07-24T00:45:48;100083.53;;;18.50;100.00
74372;BME280;62885;51.374;6.170;2023-07-24T00:48:14;100076.69;;;18.39;100.00
74372;BME280;62885;51.374;6.170;2023-07-24T00:50:41;100075.34;;;18.35;100.00
74372;BME280;62885;51.374;6.170;2023-07-24T00:53:07;100063.47;;;18.36;100.00
74372;BME280;62885;51.374;6.170;2023-07-24T00:55:32;100058.84;;;18.44;100.00
74372;BME280;62885;51.374;6.170;2023-07-24T00:57:59;100056.75;;;18.46;100.00
74372;BME280;62885;51.374;6.170;2023-07-24T01:00:25;100047.31;;;18.42;100.00
74372;BME280;62885;51.374;6.170;2023-07-24T01:02:51;100049.19;;;18.42;100.00
74372;BME280;62885;51.374;6.170;2023-07-24T01:05:17;100034.25;;;18.46;100.00
74372;BME280;62885;51.374;6.170;2023-07-24T01:07:42;100042.84;;;18.50;100.00
74372;BME280;62885;51.374;6.170;2023-07-24T01:10:08;100046.41;;;18.50;100.00
74372;BME280;62885;51.374;6.170;2023-07-24T01:15:28;100040.72;;;18.45;100.00
74372;BME280;62885;51.374;6.170;2023-07-24T01:18:15;100029.47;;;18.48;100.00
74372;BME280;62885;51.374;6.170;2023-07-24T01:20:50;100021.34;;;18.48;100.00
74372;BME280;62885;51.374;6.170;2023-07-24T01:23:40;100019.63;;;18.55;100.00
74372;BME280;62885;51.374;6.170;2023-07-24T01:26:09;100019.25;;;18.58;100.00
74372;BME280;62885;51.374;6.170;2023-07-24T01:28:36;100008.59;;;18.57;100.00
74372;BME280;62885;51.374;6.170;2023-07-24T01:31:01;100008.63;;;18.48;100.00
74372;BME280;62885;51.374;6.170;2023-07-24T01:33:27;100007.94;;;18.55;100.00
74372;BME280;62885;51.374;6.170;2023-07-24T01:35:55;100000.50;;;18.48;100.00
74372;BME280;62885;51.374;6.170;2023-07-24T01:38:24;99998.06;;;18.54;100.00
74372;BME280;62885;51.374;6.170;2023-07-24T01:40:52;99997.09;;;18.55;100.00
74372;BME280;62885;51.374;6.170;2023-07-24T01:43:17;100000.97;;;18.52;100.00
74372;BME280;62885;51.374;6.170;2023-07-24T01:45:43;99997.63;;;18.50;100.00
74372;BME280;62885;51.374;6.170;2023-07-24T01:48:08;99996.78;;;18.50;100.00
74372;BME280;62885;51.374;6.170;2023-07-24T01:50:33;100000.25;;;18.58;100.00
74372;BME280;62885;51.374;6.170;2023-07-24T01:52:59;99994.03;;;18.58;100.00
74372;BME280;62885;51.374;6.170;2023-07-24T01:55:24;99984.47;;;18.62;100.00
74372;BME280;62885;51.374;6.170;2023-07-24T01:57:50;99970.00;;;18.69;100.00
74372;BME280;62885;51.374;6.170;2023-07-24T02:00:15;99965.75;;;18.81;100.00
74372;BME280;62885;51.374;6.170;2023-07-24T02:02:40;99970.72;;;18.78;100.00
74372;BME280;62885;51.374;6.170;2023-07-24T02:05:06;99967.28;;;18.84;100.00
74372;BME280;62885;51.374;6.170;2023-07-24T02:07:32;99962.28;;;18.87;100.00
74372;BME280;62885;51.374;6.170;2023-07-24T02:09:57;99964.38;;;18.71;100.00
74372;BME280;62885;51.374;6.170;2023-07-24T02:12:23;99970.06;;;18.76;100.00
74372;BME280;62885;51.374;6.170;2023-07-24T02:14:48;99968.00;;;18.78;100.00
74372;BME280;62885;51.374;6.170;2023-07-24T02:17:15;99961.66;;;18.85;100.00
74372;BME280;62885;51.374;6.170;2023-07-24T02:19:41;99969.53;;;18.80;100.00
74372;BME280;62885;51.374;6.170;2023-07-24T02:22:07;99968.00;;;18.78;100.00
74372;BME280;62885;51.374;6.170;2023-07-24T02:24:32;99958.50;;;18.67;100.00
74372;BME280;62885;51.374;6.170;2023-07-24T02:26:57;99952.19;;;18.81;100.00
74372;BME280;62885;51.374;6.170;2023-07-24T02:29:23;99957.16;;;18.78;100.00
74372;BME280;62885;51.374;6.170;2023-07-24T02:34:14;99955.50;;;18.62;100.00
74372;BME280;62885;51.374;6.170;2023-07-24T02:36:39;99961.75;;;18.63;100.00
74372;BME280;62885;51.374;6.170;2023-07-24T02:39:06;99957.72;;;18.59;100.00
74372;BME280;62885;51.374;6.170;2023-07-24T02:41:32;99948.75;;;18.58;100.00
74372;BME280;62885;51.374;6.170;2023-07-24T02:43:57;99943.84;;;18.54;100.00
74372;BME280;62885;51.374;6.170;2023-07-24T02:46:23;99942.28;;;18.44;100.00
74372;BME280;62885;51.374;6.170;2023-07-24T02:48:49;99946.69;;;18.45;100.00
74372;BME280;62885;51.374;6.170;2023-07-24T02:51:15;99944.31;;;18.42;100.00
74372;BME280;62885;51.374;6.170;2023-07-24T02:53:40;99942.44;;;18.43;100.00
74372;BME280;62885;51.374;6.170;2023-07-24T02:56:05;99945.34;;;18.41;100.00
74372;BME280;62885;51.374;6.170;2023-07-24T02:58:31;99941.78;;;18.41;100.00
74372;BME280;62885;51.374;6.170;2023-07-24T03:01:06;99942.84;;;18.40;100.00
74372;BME280;62885;51.374;6.170;2023-07-24T03:03:35;99936.41;;;18.56;100.00
74372;BME280;62885;51.374;6.170;2023-07-24T03:06:01;99941.72;;;18.64;100.00
74372;BME280;62885;51.374;6.170;2023-07-24T03:08:26;99944.16;;;18.59;100.00
74372;BME280;62885;51.374;6.170;2023-07-24T03:10:52;99940.88;;;18.48;100.00
74372;BME280;62885;51.374;6.170;2023-07-24T03:13:17;99938.75;;;18.59;100.00
74372;BME280;62885;51.374;6.170;2023-07-24T03:15:42;99942.56;;;18.50;100.00
74372;BME280;62885;51.374;6.170;2023-07-24T03:18:08;99933.41;;;18.51;100.00
74372;BME280;62885;51.374;6.170;2023-07-24T03:20:33;99936.41;;;18.56;100.00
74372;BME280;62885;51.374;6.170;2023-07-24T03:22:59;99936.03;;;18.59;100.00
74372;BME280;62885;51.374;6.170;2023-07-24T03:25:24;99932.88;;;18.55;100.00
74372;BME280;62885;51.374;6.170;2023-07-24T03:27:49;99936.13;;;18.65;100.00
74372;BME280;62885;51.374;6.170;2023-07-24T03:30:15;99933.56;;;18.49;100.00
74372;BME280;62885;51.374;6.170;2023-07-24T03:32:40;99928.34;;;18.47;100.00
74372;BME280;62885;51.374;6.170;2023-07-24T03:35:06;99924.41;;;18.35;100.00
74372;BME280;62885;51.374;6.170;2023-07-24T03:37:33;99922.44;;;18.29;100.00
74372;BME280;62885;51.374;6.170;2023-07-24T03:39:59;99919.44;;;18.24;100.00
74372;BME280;62885;51.374;6.170;2023-07-24T03:42:28;99924.13;;;18.30;100.00
74372;BME280;62885;51.374;6.170;2023-07-24T03:44:55;99912.72;;;18.35;100.00
74372;BME280;62885;51.374;6.170;2023-07-24T03:47:20;99911.91;;;18.34;100.00
74372;BME280;62885;51.374;6.170;2023-07-24T03:49:46;99909.38;;;18.33;100.00
74372;BME280;62885;51.374;6.170;2023-07-24T03:52:11;99909.25;;;18.41;100.00
74372;BME280;62885;51.374;6.170;2023-07-24T03:54:37;99907.66;;;18.46;100.00
74372;BME280;62885;51.374;6.170;2023-07-24T03:57:02;99904.50;;;18.43;100.00
74372;BME280;62885;51.374;6.170;2023-07-24T03:59:28;99894.50;;;18.43;100.00
74372;BME280;62885;51.374;6.170;2023-07-24T04:01:53;99892.81;;;18.42;100.00
74372;BME280;62885;51.374;6.170;2023-07-24T04:04:19;99895.63;;;18.49;100.00
74372;BME280;62885;51.374;6.170;2023-07-24T04:06:45;99891.72;;;18.52;100.00
74372;BME280;62885;51.374;6.170;2023-07-24T04:09:11;99889.44;;;18.40;100.00
74372;BME280;62885;51.374;6.170;2023-07-24T04:11:43;99888.59;;;18.25;100.00
74372;BME280;62885;51.374;6.170;2023-07-24T04:14:08;99894.78;;;18.34;100.00
74372;BME280;62885;51.374;6.170;2023-07-24T04:16:33;99899.00;;;18.51;100.00
74372;BME280;62885;51.374;6.170;2023-07-24T04:18:59;99907.13;;;18.36;100.00
74372;BME280;62885;51.374;6.170;2023-07-24T04:21:24;99898.50;;;18.18;100.00
74372;BME280;62885;51.374;6.170;2023-07-24T04:23:49;99897.38;;;18.13;100.00
74372;BME280;62885;51.374;6.170;2023-07-24T04:26:15;99900.94;;;18.13;100.00
74372;BME280;62885;51.374;6.170;2023-07-24T04:28:42;99907.56;;;18.11;100.00
74372;BME280;62885;51.374;6.170;2023-07-24T04:31:08;99907.75;;;18.09;100.00
74372;BME280;62885;51.374;6.170;2023-07-24T04:33:33;99906.91;;;18.09;100.00
74372;BME280;62885;51.374;6.170;2023-07-24T04:35:59;99911.88;;;18.05;100.00
74372;BME280;62885;51.374;6.170;2023-07-24T04:38:24;99908.31;;;18.19;100.00
74372;BME280;62885;51.374;6.170;2023-07-24T04:40:49;99905.25;;;18.22;100.00
74372;BME280;62885;51.374;6.170;2023-07-24T04:43:15;99915.59;;;18.19;100.00
74372;BME280;62885;51.374;6.170;2023-07-24T04:45:40;99912.44;;;18.15;100.00
74372;BME280;62885;51.374;6.170;2023-07-24T04:48:06;99919.16;;;18.19;100.00
74372;BME280;62885;51.374;6.170;2023-07-24T04:50:31;99927.00;;;18.14;100.00
74372;BME280;62885;51.374;6.170;2023-07-24T04:52:57;99931.97;;;18.11;100.00
74372;BME280;62885;51.374;6.170;2023-07-24T04:55:23;99927.72;;;18.08;100.00
74372;BME280;62885;51.374;6.170;2023-07-24T04:57:48;99937.38;;;18.11;100.00
74372;BME280;62885;51.374;6.170;2023-07-24T05:00:14;99939.81;;;18.20;100.00
74372;BME280;62885;51.374;6.170;2023-07-24T05:02:40;99943.94;;;18.16;100.00
74372;BME280;62885;51.374;6.170;2023-07-24T05:05:05;99942.41;;;18.14;100.00
74372;BME280;62885;51.374;6.170;2023-07-24T05:07:31;99947.38;;;18.10;100.00
74372;BME280;62885;51.374;6.170;2023-07-24T05:09:56;99938.00;;;17.98;100.00
74372;BME280;62885;51.374;6.170;2023-07-24T05:12:22;99936.78;;;18.00;100.00
74372;BME280;62885;51.374;6.170;2023-07-24T05:14:47;99934.44;;;17.97;100.00
74372;BME280;62885;51.374;6.170;2023-07-24T05:17:13;99923.78;;;17.96;100.00
74372;BME280;62885;51.374;6.170;2023-07-24T05:19:38;99935.28;;;17.98;100.00
74372;BME280;62885;51.374;6.170;2023-07-24T05:22:04;99934.44;;;17.97;100.00
74372;BME280;62885;51.374;6.170;2023-07-24T05:24:29;99953.03;;;18.00;100.00
74372;BME280;62885;51.374;6.170;2023-07-24T05:26:54;99954.38;;;18.04;100.00
74372;BME280;62885;51.374;6.170;2023-07-24T05:29:20;99966.81;;;17.91;100.00
74372;BME280;62885;51.374;6.170;2023-07-24T05:31:45;99965.31;;;17.65;100.00
74372;BME280;62885;51.374;6.170;2023-07-24T05:34:11;99955.59;;;17.48;100.00
74372;BME280;62885;51.374;6.170;2023-07-24T05:36:36;99950.97;;;17.34;100.00
74372;BME280;62885;51.374;6.170;2023-07-24T05:39:01;99954.31;;;17.36;100.00
74372;BME280;62885;51.374;6.170;2023-07-24T05:41:27;99965.84;;;17.30;100.00
74372;BME280;62885;51.374;6.170;2023-07-24T05:43:52;99967.22;;;17.34;100.00
74372;BME280;62885;51.374;6.170;2023-07-24T05:46:18;99966.66;;;17.39;100.00
74372;BME280;62885;51.374;6.170;2023-07-24T05:48:44;99959.38;;;17.39;100.00
74372;BME280;62885;51.374;6.170;2023-07-24T05:51:09;99962.53;;;17.51;100.00
74372;BME280;62885;51.374;6.170;2023-07-24T05:53:34;99956.84;;;17.69;100.00
74372;BME280;62885;51.374;6.170;2023-07-24T05:56:02;99962.09;;;17.70;100.00
74372;BME280;62885;51.374;6.170;2023-07-24T05:58:28;99952.47;;;17.68;100.00
74372;BME280;62885;51.374;6.170;2023-07-24T06:00:53;99940.47;;;17.62;100.00
74372;BME280;62885;51.374;6.170;2023-07-24T06:03:21;99953.84;;;17.63;100.00
74372;BME280;62885;51.374;6.170;2023-07-24T06:05:46;99949.06;;;17.65;100.00
74372;BME280;62885;51.374;6.170;2023-07-24T06:08:15;99958.53;;;17.70;100.00
74372;BME280;62885;51.374;6.170;2023-07-24T06:10:40;99958.25;;;17.64;100.00
74372;BME280;62885;51.374;6.170;2023-07-24T06:13:05;99961.53;;;17.75;100.00
74372;BME280;62885;51.374;6.170;2023-07-24T06:15:31;99961.38;;;17.76;100.00
74372;BME280;62885;51.374;6.170;2023-07-24T06:17:56;99973.81;;;17.85;100.00
74372;BME280;62885;51.374;6.170;2023-07-24T06:20:22;99976.75;;;17.98;100.00
74372;BME280;62885;51.374;6.170;2023-07-24T06:22:47;99974.22;;;17.97;100.00
74372;BME280;62885;51.374;6.170;2023-07-24T06:25:13;99971.53;;;17.97;100.00
74372;BME280;62885;51.374;6.170;2023-07-24T06:27:38;99968.66;;;18.13;100.00
74372;BME280;62885;51.374;6.170;2023-07-24T06:30:04;99979.69;;;18.64;100.00
74372;BME280;62885;51.374;6.170;2023-07-24T06:32:29;99977.94;;;18.71;100.00
74372;BME280;62885;51.374;6.170;2023-07-24T06:34:55;99980.75;;;18.63;100.00
74372;BME280;62885;51.374;6.170;2023-07-24T06:37:20;99988.66;;;18.64;100.00
74372;BME280;62885;51.374;6.170;2023-07-24T06:39:45;99986.38;;;18.53;100.00
74372;BME280;62885;51.374;6.170;2023-07-24T06:42:11;99987.34;;;18.45;100.00
74372;BME280;62885;51.374;6.170;2023-07-24T06:44:36;99990.97;;;18.38;100.00
74372;BME280;62885;51.374;6.170;2023-07-24T06:47:01;99982.09;;;18.44;100.00
74372;BME280;62885;51.374;6.170;2023-07-24T06:49:27;99991.81;;;18.38;100.00
74372;BME280;62885;51.374;6.170;2023-07-24T06:51:52;99998.63;;;18.34;100.00
74372;BME280;62885;51.374;6.170;2023-07-24T06:54:18;99984.59;;;18.31;100.00
74372;BME280;62885;51.374;6.170;2023-07-24T06:56:43;99985.44;;;18.31;100.00
74372;BME280;62885;51.374;6.170;2023-07-24T06:59:08;99985.25;;;18.33;100.00
74372;BME280;62885;51.374;6.170;2023-07-24T07:01:34;99989.28;;;18.37;100.00
74372;BME280;62885;51.374;6.170;2023-07-24T07:03:59;99990.88;;;18.46;100.00
74372;BME280;62885;51.374;6.170;2023-07-24T07:06:24;99989.91;;;18.62;100.00
74372;BME280;62885;51.374;6.170;2023-07-24T07:08:50;100003.19;;;18.57;100.00
74372;BME280;62885;51.374;6.170;2023-07-24T07:11:15;100000.03;;;18.45;100.00
74372;BME280;62885;51.374;6.170;2023-07-24T07:13:41;99999.94;;;18.53;100.00
74372;BME280;62885;51.374;6.170;2023-07-24T07:16:06;99995.75;;;18.51;100.00
74372;BME280;62885;51.374;6.170;2023-07-24T07:18:34;99994.91;;;18.50;100.00
74372;BME280;62885;51.374;6.170;2023-07-24T07:20:59;99999.47;;;18.50;100.00
74372;BME280;62885;51.374;6.170;2023-07-24T07:23:24;99994.97;;;18.42;100.00
74372;BME280;62885;51.374;6.170;2023-07-24T07:25:51;100006.91;;;18.56;100.00
74372;BME280;62885;51.374;6.170;2023-07-24T07:28:17;100008.63;;;18.48;100.00
74372;BME280;62885;51.374;6.170;2023-07-24T07:30:43;99997.19;;;18.61;100.00
74372;BME280;62885;51.374;6.170;2023-07-24T07:33:09;99982.41;;;18.64;100.00
74372;BME280;62885;51.374;6.170;2023-07-24T07:35:35;99985.59;;;18.67;100.00
74372;BME280;62885;51.374;6.170;2023-07-24T07:38:02;99984.38;;;18.70;100.00
74372;BME280;62885;51.374;6.170;2023-07-24T07:40:28;99989.47;;;18.50;100.00
74372;BME280;62885;51.374;6.170;2023-07-24T07:42:54;99991.78;;;18.61;100.00
74372;BME280;62885;51.374;6.170;2023-07-24T07:45:19;99983.53;;;18.55;100.00
74372;BME280;62885;51.374;6.170;2023-07-24T07:47:45;99983.06;;;18.66;100.00
74372;BME280;62885;51.374;6.170;2023-07-24T07:50:10;99979.06;;;18.62;100.00
74372;BME280;62885;51.374;6.170;2023-07-24T07:52:36;99975.41;;;18.69;100.00
74372;BME280;62885;51.374;6.170;2023-07-24T07:55:02;99976.44;;;18.83;100.00
74372;BME280;62885;51.374;6.170;2023-07-24T07:57:27;99970.44;;;18.87;100.00
74372;BME280;62885;51.374;6.170;2023-07-24T07:59:52;99968.09;;;19.14;100.00
74372;BME280;62885;51.374;6.170;2023-07-24T08:02:18;99963.09;;;19.17;100.00
74372;BME280;62885;51.374;6.170;2023-07-24T08:04:43;99962.81;;;19.27;100.00
74372;BME280;62885;51.374;6.170;2023-07-24T08:07:08;99965.47;;;19.42;100.00
74372;BME280;62885;51.374;6.170;2023-07-24T08:09:34;99962.59;;;19.28;100.00
74372;BME280;62885;51.374;6.170;2023-07-24T08:12:01;99961.00;;;19.49;99.56
74372;BME280;62885;51.374;6.170;2023-07-24T08:14:26;99961.09;;;19.55;100.00
74372;BME280;62885;51.374;6.170;2023-07-24T08:16:51;99968.81;;;19.58;97.75
74372;BME280;62885;51.374;6.170;2023-07-24T08:19:18;99959.34;;;19.90;94.96
74372;BME280;62885;51.374;6.170;2023-07-24T08:21:43;99963.84;;;20.04;94.03
74372;BME280;62885;51.374;6.170;2023-07-24T08:24:09;99958.56;;;19.75;93.77
74372;BME280;62885;51.374;6.170;2023-07-24T08:26:35;99965.34;;;19.64;94.62
74372;BME280;62885;51.374;6.170;2023-07-24T08:29:00;99961.34;;;19.82;94.81
74372;BME280;62885;51.374;6.170;2023-07-24T08:31:25;99957.41;;;19.84;94.49
74372;BME280;62885;51.374;6.170;2023-07-24T08:33:51;99956.88;;;19.95;94.47
74372;BME280;62885;51.374;6.170;2023-07-24T08:36:16;99962.44;;;20.08;93.11
74372;BME280;62885;51.374;6.170;2023-07-24T08:38:41;99950.00;;;20.21;92.93
74372;BME280;62885;51.374;6.170;2023-07-24T08:41:10;99944.94;;;20.18;94.03
74372;BME280;62885;51.374;6.170;2023-07-24T08:43:37;99945.41;;;20.00;92.65
74372;BME280;62885;51.374;6.170;2023-07-24T08:46:04;99952.28;;;19.75;93.71
74372;BME280;62885;51.374;6.170;2023-07-24T08:48:32;99953.88;;;20.12;92.53
74372;BME280;62885;51.374;6.170;2023-07-24T08:51:02;99942.50;;;20.29;91.23
74372;BME280;62885;51.374;6.170;2023-07-24T08:53:29;99941.63;;;20.50;90.31
74372;BME280;62885;51.374;6.170;2023-07-24T08:55:56;99941.19;;;20.46;90.61
74372;BME280;62885;51.374;6.170;2023-07-24T08:58:21;99933.47;;;20.50;90.18
74372;BME280;62885;51.374;6.170;2023-07-24T09:00:49;99936.31;;;20.35;89.57
74372;BME280;62885;51.374;6.170;2023-07-24T09:03:17;99924.41;;;20.36;90.75
74372;BME280;62885;51.374;6.170;2023-07-24T09:05:43;99925.34;;;20.29;90.61
74372;BME280;62885;51.374;6.170;2023-07-24T09:08:09;99932.38;;;20.38;89.81
74372;BME280;62885;51.374;6.170;2023-07-24T09:10:34;99931.22;;;20.54;89.05
74372;BME280;62885;51.374;6.170;2023-07-24T09:13:00;99924.31;;;20.58;89.03
74372;BME280;62885;51.374;6.170;2023-07-24T09:15:25;99931.34;;;20.73;88.62
74372;BME280;62885;51.374;6.170;2023-07-24T09:17:51;99925.50;;;20.83;89.20
74372;BME280;62885;51.374;6.170;2023-07-24T09:20:18;99919.97;;;20.63;89.46
74372;BME280;62885;51.374;6.170;2023-07-24T09:22:52;99909.41;;;20.47;89.33
74372;BME280;62885;51.374;6.170;2023-07-24T09:25:17;99920.69;;;20.44;89.09
74372;BME280;62885;51.374;6.170;2023-07-24T09:27:44;99920.75;;;20.29;89.24
74372;BME280;62885;51.374;6.170;2023-07-24T09:30:13;99925.84;;;20.11;90.81
74372;BME280;62885;51.374;6.170;2023-07-24T09:32:39;99919.03;;;20.22;91.22
74372;BME280;62885;51.374;6.170;2023-07-24T09:35:16;99907.91;;;20.38;90.04
74372;BME280;62885;51.374;6.170;2023-07-24T09:37:42;99904.84;;;20.54;89.90
74372;BME280;62885;51.374;6.170;2023-07-24T09:40:09;99902.56;;;20.58;89.64
74372;BME280;62885;51.374;6.170;2023-07-24T09:42:36;99900.31;;;20.61;89.60
74372;BME280;62885;51.374;6.170;2023-07-24T09:45:03;99898.13;;;20.98;88.94
74372;BME280;62885;51.374;6.170;2023-07-24T09:47:28;99892.31;;;21.01;87.00
74372;BME280;62885;51.374;6.170;2023-07-24T09:49:55;99886.03;;;21.07;86.97
74372;BME280;62885;51.374;6.170;2023-07-24T09:52:21;99880.81;;;21.12;87.05
74372;BME280;62885;51.374;6.170;2023-07-24T09:54:58;99881.53;;;21.40;84.99
74372;BME280;62885;51.374;6.170;2023-07-24T09:57:25;99874.78;;;21.16;85.04
74372;BME280;62885;51.374;6.170;2023-07-24T09:59:51;99872.28;;;21.21;84.14
74372;BME280;62885;51.374;6.170;2023-07-24T10:02:17;99871.16;;;21.03;85.96
74372;BME280;62885;51.374;6.170;2023-07-24T10:04:44;99874.38;;;21.26;84.59
74372;BME280;62885;51.374;6.170;2023-07-24T10:07:10;99870.03;;;20.77;85.35
74372;BME280;62885;51.374;6.170;2023-07-24T10:09:35;99860.00;;;20.91;85.69
74372;BME280;62885;51.374;6.170;2023-07-24T10:12:02;99853.50;;;20.85;86.04
74372;BME280;62885;51.374;6.170;2023-07-24T10:14:28;99848.84;;;20.66;87.97
74372;BME280;62885;51.374;6.170;2023-07-24T10:16:56;99852.16;;;20.62;88.39
74372;BME280;62885;51.374;6.170;2023-07-24T10:19:21;99859.03;;;20.58;88.32
74372;BME280;62885;51.374;6.170;2023-07-24T10:21:51;99861.34;;;20.54;87.20
74372;BME280;62885;51.374;6.170;2023-07-24T10:24:17;99868.16;;;20.37;89.29
74372;BME280;62885;51.374;6.170;2023-07-24T10:26:43;99857.94;;;20.18;91.89
74372;BME280;62885;51.374;6.170;2023-07-24T10:29:09;99857.00;;;20.04;93.51
74372;BME280;62885;51.374;6.170;2023-07-24T10:31:35;99862.63;;;19.96;93.71
74372;BME280;62885;51.374;6.170;2023-07-24T10:34:04;99861.53;;;19.90;94.12
74372;BME280;62885;51.374;6.170;2023-07-24T10:36:33;99874.47;;;19.88;93.78
74372;BME280;62885;51.374;6.170;2023-07-24T10:38:59;99866.44;;;19.80;94.85
74372;BME280;62885;51.374;6.170;2023-07-24T10:41:36;99876.81;;;19.70;96.12
74372;BME280;62885;51.374;6.170;2023-07-24T10:44:02;99889.28;;;19.64;95.61
74372;BME280;62885;51.374;6.170;2023-07-24T10:46:40;99898.53;;;19.70;96.02
74372;BME280;62885;51.374;6.170;2023-07-24T10:49:08;99913.94;;;19.63;96.84
74372;BME280;62885;51.374;6.170;2023-07-24T10:51:33;99928.09;;;19.58;97.11
74372;BME280;62885;51.374;6.170;2023-07-24T10:54:02;99933.56;;;19.44;98.73
74372;BME280;62885;51.374;6.170;2023-07-24T10:56:28;99926.97;;;19.32;100.00
74372;BME280;62885;51.374;6.170;2023-07-24T10:58:54;99914.81;;;19.27;100.00
74372;BME280;62885;51.374;6.170;2023-07-24T11:01:19;99908.19;;;19.15;98.65
74372;BME280;62885;51.374;6.170;2023-07-24T11:03:46;99901.69;;;18.95;100.00
74372;BME280;62885;51.374;6.170;2023-07-24T11:06:14;99890.38;;;18.92;100.00
74372;BME280;62885;51.374;6.170;2023-07-24T11:08:40;99895.44;;;18.80;100.00
74372;BME280;62885;51.374;6.170;2023-07-24T11:11:07;99887.31;;;18.80;100.00
74372;BME280;62885;51.374;6.170;2023-07-24T11:13:33;99890.94;;;18.87;100.00
74372;BME280;62885;51.374;6.170;2023-07-24T11:16:05;99875.34;;;18.74;100.00
74372;BME280;62885;51.374;6.170;2023-07-24T11:18:30;99855.06;;;18.70;100.00
74372;BME280;62885;51.374;6.170;2023-07-24T11:20:56;99859.97;;;18.81;100.00
74372;BME280;62885;51.374;6.170;2023-07-24T11:23:23;99837.34;;;18.89;100.00
74372;BME280;62885;51.374;6.170;2023-07-24T11:25:53;99820.44;;;19.08;100.00
74372;BME280;62885;51.374;6.170;2023-07-24T11:28:19;99829.00;;;19.48;100.00
74372;BME280;62885;51.374;6.170;2023-07-24T11:30:45;99860.25;;;19.65;100.00
74372;BME280;62885;51.374;6.170;2023-07-24T11:33:12;99874.88;;;19.92;100.00
74372;BME280;62885;51.374;6.170;2023-07-24T11:35:40;99871.38;;;19.98;100.00
74372;BME280;62885;51.374;6.170;2023-07-24T11:38:09;99876.88;;;20.04;100.00
74372;BME280;62885;51.374;6.170;2023-07-24T11:40:37;99882.72;;;19.74;100.00
74372;BME280;62885;51.374;6.170;2023-07-24T11:43:04;99885.03;;;19.77;100.00
74372;BME280;62885;51.374;6.170;2023-07-24T11:45:30;99885.06;;;19.83;100.00
74372;BME280;62885;51.374;6.170;2023-07-24T11:47:55;99879.47;;;19.85;100.00
74372;BME280;62885;51.374;6.170;2023-07-24T11:50:22;99886.59;;;19.92;100.00
74372;BME280;62885;51.374;6.170;2023-07-24T11:52:49;99875.13;;;19.90;100.00
74372;BME280;62885;51.374;6.170;2023-07-24T11:55:20;99872.81;;;19.94;100.00
74372;BME280;62885;51.374;6.170;2023-07-24T11:58:03;99875.59;;;19.73;100.00
74372;BME280;62885;51.374;6.170;2023-07-24T12:00:32;99881.66;;;19.75;100.00
74372;BME280;62885;51.374;6.170;2023-07-24T12:02:59;99879.00;;;19.81;100.00
74372;BME280;62885;51.374;6.170;2023-07-24T12:05:25;99870.75;;;19.96;97.51
74372;BME280;62885;51.374;6.170;2023-07-24T12:07:54;99874.75;;;20.00;96.90
74372;BME280;62885;51.374;6.170;2023-07-24T12:10:38;99878.19;;;20.08;96.33
74372;BME280;62885;51.374;6.170;2023-07-24T12:13:04;99870.75;;;19.96;94.89
74372;BME280;62885;51.374;6.170;2023-07-24T12:15:30;99881.13;;;20.14;94.94
74372;BME280;62885;51.374;6.170;2023-07-24T12:17:56;99882.81;;;20.15;92.72
74372;BME280;62885;51.374;6.170;2023-07-24T12:20:22;99886.13;;;20.10;91.84
74372;BME280;62885;51.374;6.170;2023-07-24T12:22:48;99887.06;;;20.24;89.20
74372;BME280;62885;51.374;6.170;2023-07-24T12:25:13;99878.41;;;20.41;88.36
74372;BME280;62885;51.374;6.170;2023-07-24T12:27:39;99884.38;;;20.58;87.53
74372;BME280;62885;51.374;6.170;2023-07-24T12:30:06;99872.25;;;20.61;87.51
74372;BME280;62885;51.374;6.170;2023-07-24T12:32:32;99877.34;;;20.77;86.08
74372;BME280;62885;51.374;6.170;2023-07-24T12:34:58;99884.53;;;20.98;84.93
74372;BME280;62885;51.374;6.170;2023-07-24T12:37:23;99881.81;;;20.98;83.36
74372;BME280;62885;51.374;6.170;2023-07-24T12:39:49;99881.00;;;21.04;82.14
74372;BME280;62885;51.374;6.170;2023-07-24T12:42:15;99879.47;;;20.88;79.83
74372;BME280;62885;51.374;6.170;2023-07-24T12:44:41;99879.94;;;20.98;78.98
74372;BME280;62885;51.374;6.170;2023-07-24T12:47:07;99871.41;;;21.08;78.27
74372;BME280;62885;51.374;6.170;2023-07-24T12:49:32;99870.56;;;21.14;79.84
74372;BME280;62885;51.374;6.170;2023-07-24T12:51:58;99870.00;;;21.25;77.94